Time;durP1;ratioP1;P1;durP2;ratioP2;P2;SDS_P1;SDS_P2;PMS_P1;PMS_P2;Temp;Humidity;BMP_temperature;BMP_pressure;BME280_temperature;BME280_humidity;BME280_pressure;Samples;Min_cycle;Max_cycle;Signal;HPM_P1;HPM_P2
2021/12/11 00:01:54;;;;;;;137.18;57.85;;;;;;;-7.76;100.00;98609.47;5014373;28;20363;-77
2021/12/11 00:04:42;;;;;;;140.93;56.15;;;;;;;-7.77;100.00;98610.28;5013843;28;20178;-78
2021/12/11 00:07:29;;;;;;;118.60;52.35;;;;;;;-7.84;100.00;98605.84;5014427;28;20061;-78
2021/12/11 00:10:18;;;;;;;118.00;50.95;;;;;;;-7.85;100.00;98610.06;5013846;28;20049;-78
2021/12/11 00:13:06;;;;;;;105.53;48.20;;;;;;;-7.94;100.00;98612.34;5014369;28;20061;-78
2021/12/11 00:15:52;;;;;;;107.50;45.22;;;;;;;-7.91;100.00;98625.13;5014338;28;20117;-78
2021/12/11 00:18:38;;;;;;;112.63;45.17;;;;;;;-7.96;100.00;98619.06;5014289;28;20042;-78
2021/12/11 00:21:25;;;;;;;106.53;45.17;;;;;;;-8.04;100.00;98623.91;5014239;28;20121;-78
2021/12/11 00:24:17;;;;;;;100.07;42.97;;;;;;;-8.02;100.00;98629.91;4985937;28;20372;-78
2021/12/11 00:27:09;;;;;;;108.23;47.37;;;;;;;-7.91;100.00;98626.81;5014259;28;20046;-78
2021/12/11 00:29:55;;;;;;;108.05;45.78;;;;;;;-7.90;100.00;98628.53;5013609;28;20045;-78
2021/12/11 00:32:39;;;;;;;101.35;47.38;;;;;;;-7.94;100.00;98645.38;4999608;28;20117;-78
2021/12/11 00:35:24;;;;;;;253.88;84.25;;;;;;;-7.91;100.00;98632.75;5014022;28;20042;-78
2021/12/11 00:38:15;;;;;;;232.68;76.18;;;;;;;-8.02;100.00;98642.63;5013555;28;20052;-78
2021/12/11 00:41:04;;;;;;;167.80;59.58;;;;;;;-8.09;100.00;98643.25;5013326;28;20045;-78
2021/12/11 00:43:50;;;;;;;163.50;56.08;;;;;;;-8.10;100.00;98661.84;5013104;28;20042;-78
2021/12/11 00:46:36;;;;;;;181.43;62.85;;;;;;;-8.01;100.00;98658.72;5013689;28;20375;-78
2021/12/11 00:49:23;;;;;;;159.43;55.90;;;;;;;-8.02;100.00;98659.56;5013482;28;20046;-78
2021/12/11 00:52:08;;;;;;;153.18;54.17;;;;;;;-8.11;100.00;98672.84;5013116;28;20050;-78
2021/12/11 00:54:52;;;;;;;191.15;56.95;;;;;;;-8.17;100.00;98670.09;5013694;28;20042;-78
2021/12/11 00:57:36;;;;;;;233.82;65.47;;;;;;;-8.14;100.00;98669.34;4999307;28;20042;-78
2021/12/11 01:00:24;;;;;;;222.45;67.82;;;;;;;-8.09;100.00;98681.38;5013146;28;20045;-78
2021/12/11 01:03:10;;;;;;;198.57;58.33;;;;;;;-8.08;100.00;98689.88;5013851;28;20057;-78
2021/12/11 01:05:56;;;;;;;173.02;55.63;;;;;;;-8.12;100.00;98698.22;5012867;28;20050;-78
2021/12/11 01:08:56;;;;;;;136.43;49.30;;;;;;;-8.16;100.00;98701.44;4999077;28;20529;-78
2021/12/11 01:11:46;;;;;;;125.78;45.03;;;;;;;-8.25;100.00;98704.59;4998883;28;20132;-78
2021/12/11 01:14:39;;;;;;;118.88;44.10;;;;;;;-8.27;100.00;98714.69;5012716;28;20050;-78
2021/12/11 01:17:47;;;;;;;110.47;42.30;;;;;;;-8.34;100.00;98720.38;4998219;28;20045;-78
2021/12/11 01:20:48;;;;;;;104.95;43.17;;;;;;;-8.35;100.00;98710.16;5013329;28;20425;-78
2021/12/11 01:26:24;;;;;;;100.80;41.40;;;;;;;-8.40;100.00;98721.91;5012633;28;20046;-78
2021/12/11 01:29:11;;;;;;;97.57;39.30;;;;;;;-8.43;100.00;98724.34;5012911;28;20045;-78
2021/12/11 01:31:58;;;;;;;102.28;41.70;;;;;;;-8.43;100.00;98724.34;4998898;28;20048;-78
2021/12/11 01:34:44;;;;;;;91.55;37.33;;;;;;;-8.48;100.00;98725.06;5013158;28;20041;-78
2021/12/11 01:37:29;;;;;;;88.32;36.60;;;;;;;-8.51;100.00;98732.56;5013144;28;20046;-78
2021/12/11 01:40:19;;;;;;;95.13;39.97;;;;;;;-8.48;100.00;98735.22;5013298;28;20042;-78
2021/12/11 01:43:06;;;;;;;87.85;37.85;;;;;;;-8.50;100.00;98734.28;5013152;28;20352;-78
2021/12/11 01:45:53;;;;;;;100.10;40.85;;;;;;;-8.51;100.00;98727.50;5012295;28;20053;-78
2021/12/11 01:48:49;;;;;;;112.53;41.00;;;;;;;-8.51;100.00;98739.34;5012336;28;20038;-78
2021/12/11 01:51:53;;;;;;;103.47;36.50;;;;;;;-8.58;100.00;98739.91;5012483;28;20080;-78
2021/12/11 01:54:42;;;;;;;124.00;41.03;;;;;;;-8.57;100.00;98739.13;5013069;28;20049;-78
2021/12/11 01:57:29;;;;;;;134.88;40.90;;;;;;;-8.56;100.00;98738.31;5012459;28;20344;-78
2021/12/11 02:00:20;;;;;;;142.27;48.10;;;;;;;-8.59;100.00;98738.19;5012930;28;20405;-78
2021/12/11 02:03:10;;;;;;;156.70;51.88;;;;;;;-8.54;100.00;98746.84;5012836;28;20138;-78
2021/12/11 02:05:55;;;;;;;139.05;44.33;;;;;;;-8.56;100.00;98749.31;5012766;28;20041;-78
2021/12/11 02:08:41;;;;;;;137.05;44.58;;;;;;;-8.68;100.00;98748.03;4998271;28;20042;-78
2021/12/11 02:11:29;;;;;;;144.70;50.78;;;;;;;-8.55;100.00;98747.63;5012908;28;20440;-78
2021/12/11 02:14:19;;;;;;;140.35;51.22;;;;;;;-8.57;100.00;98746.75;5012444;28;20435;-78
2021/12/11 02:17:06;;;;;;;123.80;44.70;;;;;;;-8.68;100.00;98761.59;4998287;28;20109;-78
2021/12/11 02:19:52;;;;;;;137.52;51.17;;;;;;;-8.63;100.00;98749.94;5012644;28;20081;-78
2021/12/11 02:22:42;;;;;;;133.68;47.50;;;;;;;-8.69;100.00;98762.41;5012580;28;20042;-78
2021/12/11 02:25:32;;;;;;;128.35;44.15;;;;;;;-8.67;100.00;98757.41;5012644;28;20440;-78
2021/12/11 02:28:33;;;;;;;128.80;41.80;;;;;;;-8.73;100.00;98764.00;5013413;28;20042;-78
2021/12/11 02:31:35;;;;;;;111.38;40.60;;;;;;;-8.77;100.00;98768.91;5016062;28;20100;-78
2021/12/11 02:34:36;;;;;;;119.47;41.25;;;;;;;-8.76;100.00;98765.56;5001597;28;20050;-78
2021/12/11 02:37:34;;;;;;;120.30;41.95;;;;;;;-8.84;100.00;98769.50;5015796;28;20447;-78
2021/12/11 02:40:29;;;;;;;124.35;43.90;;;;;;;-8.81;100.00;98775.53;5015763;28;20038;-78
2021/12/11 02:43:17;;;;;;;122.68;39.92;;;;;;;-8.82;100.00;98776.34;5015681;28;20130;-78
2021/12/11 02:46:14;;;;;;;101.20;38.80;;;;;;;-8.76;100.00;98780.78;5015754;28;20037;-78
2021/12/11 02:49:10;;;;;;;117.72;40.08;;;;;;;-8.77;100.00;98782.47;5014974;28;20042;-78
2021/12/11 02:52:10;;;;;;;116.55;40.63;;;;;;;-8.73;100.00;98781.75;5014896;28;20069;-78
2021/12/11 02:55:34;;;;;;;142.68;43.50;;;;;;;-8.69;100.00;98775.09;5015606;28;20050;-78
2021/12/11 02:58:26;;;;;;;133.00;44.80;;;;;;;-8.65;100.00;98793.84;5015056;28;20095;-78
2021/12/11 03:01:33;;;;;;;166.85;51.40;;;;;;;-8.61;100.00;98791.50;5014727;28;20432;-78
2021/12/11 03:04:29;;;;;;;162.73;52.67;;;;;;;-8.66;100.00;98798.06;5015317;28;20041;-78
2021/12/11 03:07:16;;;;;;;154.32;51.78;;;;;;;-8.62;100.00;98807.50;5014604;28;20042;-78
2021/12/11 03:10:01;;;;;;;166.00;50.15;;;;;;;-8.69;100.00;98809.78;5014597;28;20148;-78
2021/12/11 03:12:45;;;;;;;162.32;49.13;;;;;;;-8.72;100.00;98811.41;5014420;28;20050;-78
2021/12/11 03:15:32;;;;;;;177.85;52.42;;;;;;;-8.74;100.00;98812.16;5015324;28;20103;-78
2021/12/11 03:18:17;;;;;;;157.60;52.10;;;;;;;-8.75;100.00;98821.44;5015211;28;20046;-78
2021/12/11 03:21:03;;;;;;;141.73;48.28;;;;;;;-8.80;100.00;98809.44;5015100;28;20042;-78
2021/12/11 03:23:48;;;;;;;138.35;48.85;;;;;;;-8.79;100.00;98819.63;5015062;28;20325;-78
2021/12/11 03:26:33;;;;;;;122.93;46.10;;;;;;;-8.83;100.00;98824.56;5015347;28;20440;-78
2021/12/11 03:29:18;;;;;;;132.15;47.80;;;;;;;-8.86;100.00;98832.91;5015233;28;20038;-78
2021/12/11 03:32:07;;;;;;;131.25;45.03;;;;;;;-8.95;100.00;98819.88;5014532;28;20038;-78
2021/12/11 03:34:52;;;;;;;126.00;41.90;;;;;;;-8.95;100.00;98825.81;5014237;28;20120;-78
2021/12/11 03:37:36;;;;;;;124.40;41.53;;;;;;;-8.96;100.00;98829.19;5014828;28;20042;-78
2021/12/11 03:40:21;;;;;;;126.78;45.38;;;;;;;-9.00;100.00;98824.81;4999408;28;20378;-78
2021/12/11 03:43:08;;;;;;;114.57;42.28;;;;;;;-9.11;100.00;98823.53;5014863;28;20042;-78
2021/12/11 03:45:55;;;;;;;131.13;48.67;;;;;;;-8.91;100.00;98833.53;5013756;28;20050;-78
2021/12/11 03:48:45;;;;;;;145.32;47.33;;;;;;;-8.89;100.00;98847.16;5014725;28;20053;-78
2021/12/11 03:51:32;;;;;;;139.27;50.17;;;;;;;-8.92;100.00;98858.06;5014900;28;20046;-78
2021/12/11 03:54:22;;;;;;;133.90;50.03;;;;;;;-8.98;100.00;98861.22;5014946;28;20383;-78
2021/12/11 03:57:09;;;;;;;116.50;44.65;;;;;;;-9.02;100.00;98863.63;5013981;28;20042;-78
2021/12/11 03:59:55;;;;;;;122.78;43.25;;;;;;;-9.06;100.00;98867.72;5014107;28;20340;-78
2021/12/11 04:02:40;;;;;;;111.90;41.13;;;;;;;-9.11;100.00;98874.28;5014603;28;20038;-78
2021/12/11 04:05:25;;;;;;;111.63;40.50;;;;;;;-9.07;100.00;98886.25;5014515;28;20038;-78
2021/12/11 04:08:14;;;;;;;103.82;39.60;;;;;;;-9.08;100.00;98892.16;5000216;28;20049;-78
2021/12/11 04:10:59;;;;;;;117.28;43.63;;;;;;;-9.15;100.00;98889.34;5014001;28;20097;-78
2021/12/11 04:13:45;;;;;;;102.40;40.25;;;;;;;-9.19;100.00;98901.91;5013365;28;20141;-78
2021/12/11 04:16:30;;;;;;;114.38;41.72;;;;;;;-9.13;100.00;98893.66;5013588;28;20057;-78
2021/12/11 04:19:16;;;;;;;115.97;43.58;;;;;;;-9.09;100.00;98909.88;5014208;28;20360;-78
2021/12/11 04:22:02;;;;;;;108.43;40.75;;;;;;;-9.17;100.00;98902.81;5013540;28;20098;-78
2021/12/11 04:24:48;;;;;;;104.43;40.75;;;;;;;-9.18;100.00;98908.69;5013644;28;20052;-78
2021/12/11 04:27:32;;;;;;;110.50;41.28;;;;;;;-9.19;100.00;98916.25;4999778;28;20042;-78
2021/12/11 04:30:19;;;;;;;100.05;39.83;;;;;;;-9.26;100.00;98917.69;5014150;28;20172;-78
2021/12/11 04:33:06;;;;;;;102.10;39.42;;;;;;;-9.25;100.00;98916.88;5014314;28;20347;-78
2021/12/11 04:35:50;;;;;;;102.78;38.95;;;;;;;-9.26;100.00;98922.78;5013235;28;20626;-78
2021/12/11 04:38:35;;;;;;;104.10;40.33;;;;;;;-9.28;100.00;98924.38;5013982;28;20045;-78
2021/12/11 04:41:35;;;;;;;102.28;41.38;;;;;;;-9.39;100.00;98905.34;5013312;28;20126;-78
2021/12/11 04:44:28;;;;;;;115.97;45.55;;;;;;;-9.19;100.00;98926.41;5013931;28;20050;-79
2021/12/11 04:47:29;;;;;;;104.47;44.75;;;;;;;-9.21;100.00;98926.34;5013548;28;20049;-79
2021/12/11 04:50:26;;;;;;;100.82;42.05;;;;;;;-9.14;100.00;98932.50;5012922;28;20107;-79
2021/12/11 04:53:37;;;;;;;108.53;45.03;;;;;;;-9.13;100.00;98934.25;5013787;28;20049;-78
2021/12/11 05:02:56;;;;;;;103.13;40.78;;;;;;;-9.15;100.00;98948.56;5013921;28;20046;-78
2021/12/11 05:11:40;;;;;;;100.32;38.78;;;;;;;-9.32;100.00;98949.56;5013462;28;20049;-78
2021/12/11 05:14:25;;;;;;;97.80;40.00;;;;;;;-9.31;100.00;98946.22;5013256;28;20099;-78
2021/12/11 05:17:11;;;;;;;101.78;40.78;;;;;;;-9.35;100.00;98945.22;5012879;28;20046;-78
2021/12/11 05:19:55;;;;;;;106.18;41.00;;;;;;;-9.35;100.00;98951.97;5012641;28;20038;-78
2021/12/11 05:22:41;;;;;;;103.88;38.20;;;;;;;-9.36;100.00;98960.38;5013354;28;20042;-78
2021/12/11 05:25:26;;;;;;;103.93;41.47;;;;;;;-9.45;100.00;98954.13;4998864;28;20049;-78
2021/12/11 05:28:10;;;;;;;109.63;42.58;;;;;;;-9.32;100.00;98964.78;5012936;28;20050;-78
2021/12/11 05:30:57;;;;;;;101.00;37.65;;;;;;;-9.43;100.00;98961.78;5012798;28;20046;-78
2021/12/11 05:33:43;;;;;;;104.20;40.22;;;;;;;-9.50;100.00;98957.28;5013251;28;20408;-78
2021/12/11 05:36:31;;;;;;;103.90;38.53;;;;;;;-9.41;100.00;98967.81;5013278;28;20103;-78
2021/12/11 05:39:19;;;;;;;88.13;36.45;;;;;;;-9.42;100.00;98976.22;5013322;28;20049;-78
2021/12/11 05:42:05;;;;;;;124.30;46.42;;;;;;;-9.41;100.00;98975.41;5012414;28;20057;-78
2021/12/11 05:44:49;;;;;;;155.70;56.10;;;;;;;-9.35;100.00;98979.88;5012899;28;20137;-79
2021/12/11 05:47:36;;;;;;;143.68;55.22;;;;;;;-9.26;100.00;98991.25;5012929;28;20356;-79
2021/12/11 05:50:26;;;;;;;132.63;51.63;;;;;;;-9.26;100.00;98978.59;5012505;28;20080;-79
2021/12/11 05:53:12;;;;;;;119.03;50.25;;;;;;;-9.19;100.00;98985.63;5012793;28;20060;-78
2021/12/11 05:55:57;;;;;;;122.10;48.53;;;;;;;-9.08;100.00;98996.19;5012477;28;20064;-78
2021/12/11 05:58:56;;;;;;;119.00;46.25;;;;;;;-8.99;100.00;98988.94;5012852;28;20348;-78
2021/12/11 06:01:49;;;;;;;110.00;44.53;;;;;;;-8.96;100.00;98991.59;5012039;28;20519;-78
2021/12/11 06:04:36;;;;;;;107.38;43.35;;;;;;;-8.98;100.00;99000.81;5016220;28;20042;-78
2021/12/11 06:07:24;;;;;;;107.40;40.58;;;;;;;-8.91;100.00;99001.94;5016381;28;20099;-78
2021/12/11 06:10:15;;;;;;;108.60;41.63;;;;;;;-8.78;100.00;99005.81;5015795;28;20038;-78
2021/12/11 06:13:01;;;;;;;101.03;42.55;;;;;;;-8.81;100.00;99015.84;5016218;28;20050;-78
2021/12/11 06:15:45;;;;;;;98.85;40.13;;;;;;;-8.76;100.00;99024.50;5016190;28;20099;-78
2021/12/11 06:18:30;;;;;;;90.03;38.28;;;;;;;-8.72;100.00;99016.19;5015619;28;20095;-78
2021/12/11 06:21:15;;;;;;;95.53;38.63;;;;;;;-8.64;100.00;99021.56;5016079;28;20049;-78
2021/12/11 06:23:59;;;;;;;97.03;36.47;;;;;;;-8.68;100.00;99030.75;5001574;28;20443;-78
2021/12/11 06:26:44;;;;;;;83.05;35.25;;;;;;;-8.53;100.00;99031.34;5015979;28;20042;-78
2021/12/11 06:29:29;;;;;;;89.40;35.95;;;;;;;-8.38;100.00;99033.59;5016101;28;20124;-78
2021/12/11 06:32:14;;;;;;;95.95;39.13;;;;;;;-8.32;100.00;99033.81;5015285;28;20042;-78
2021/12/11 06:35:02;;;;;;;96.00;43.20;;;;;;;-8.20;100.00;99045.22;5016161;28;20045;-78
2021/12/11 06:37:47;;;;;;;115.18;43.67;;;;;;;-8.08;100.00;99053.31;5002718;28;20050;-78
2021/12/11 06:40:34;;;;;;;104.97;44.53;;;;;;;-7.99;100.00;99056.19;5015185;28;20050;-78
2021/12/11 06:43:18;;;;;;;110.07;46.38;;;;;;;-7.92;100.00;99053.06;5015833;28;20038;-78
2021/12/11 06:46:04;;;;;;;115.43;45.85;;;;;;;-7.87;100.00;99055.75;5014683;28;20053;-78
2021/12/11 06:48:51;;;;;;;105.72;46.92;;;;;;;-7.81;100.00;99053.44;5015023;28;20046;-78
2021/12/11 06:51:36;;;;;;;118.32;47.40;;;;;;;-7.68;100.00;99057.28;5014974;28;20093;-78
2021/12/11 06:54:21;;;;;;;107.28;47.20;;;;;;;-7.60;100.00;99056.75;5014833;28;20129;-78
2021/12/11 06:57:08;;;;;;;113.50;49.00;;;;;;;-7.53;100.00;99063.78;5015997;28;20045;-78
2021/12/11 06:59:54;;;;;;;113.43;48.42;;;;;;;-7.35;100.00;99067.75;4988581;28;20057;-78
2021/12/11 07:02:38;;;;;;;118.70;47.20;;;;;;;-7.27;100.00;99068.03;5016378;28;20436;-78
2021/12/11 07:05:23;;;;;;;114.00;46.53;;;;;;;-7.15;100.00;99078.59;5015234;28;20046;-78
2021/12/11 07:08:11;;;;;;;106.70;45.90;;;;;;;-7.04;100.00;99077.28;5015239;28;20041;-78
2021/12/11 07:10:59;;;;;;;109.63;49.05;;;;;;;-6.92;100.00;99089.53;5015641;28;20107;-78
2021/12/11 07:13:44;;;;;;;104.60;47.33;;;;;;;-6.89;100.00;99088.00;5014156;28;20151;-78
2021/12/11 07:16:29;;;;;;;117.03;50.92;;;;;;;-6.72;100.00;99096.19;5015873;28;20057;-78
2021/12/11 07:19:14;;;;;;;119.93;49.55;;;;;;;-6.61;100.00;99096.50;5015946;28;20154;-78
2021/12/11 07:21:59;;;;;;;105.03;46.00;;;;;;;-6.57;100.00;99103.41;5015602;28;20052;-78
2021/12/11 07:24:58;;;;;;;112.07;46.55;;;;;;;-6.47;100.00;99107.13;5015244;28;20120;-78
2021/12/11 07:27:44;;;;;;;101.03;45.17;;;;;;;-6.35;100.00;99107.53;5014816;28;20455;-78
2021/12/11 07:30:32;;;;;;;96.13;43.72;;;;;;;-6.21;100.00;99105.38;5015243;28;20125;-78
2021/12/11 07:33:19;;;;;;;99.82;44.05;;;;;;;-6.16;100.00;99121.69;5015208;28;20436;-78
2021/12/11 07:36:04;;;;;;;108.90;45.47;;;;;;;-6.04;100.00;99126.31;5017168;28;20371;-78
2021/12/11 07:38:49;;;;;;;110.45;48.70;;;;;;;-5.94;100.00;99131.72;5015294;28;20049;-78
2021/12/11 07:41:34;;;;;;;140.63;55.90;;;;;;;-5.87;100.00;99137.84;5015685;28;20054;-78
2021/12/11 07:44:22;;;;;;;144.88;59.97;;;;;;;-5.79;100.00;99136.38;5015519;28;20042;-78
2021/12/11 07:47:10;;;;;;;140.48;60.13;;;;;;;-5.74;100.00;99141.63;5015528;28;20117;-78
2021/12/11 07:49:56;;;;;;;274.33;101.30;;;;;;;-5.71;100.00;99147.69;5014953;28;20451;-78
2021/12/11 07:52:40;;;;;;;189.23;74.93;;;;;;;-5.58;100.00;99148.91;5001439;28;20042;-78
2021/12/11 07:55:26;;;;;;;798.47;382.80;;;;;;;-5.58;100.00;99153.16;5016028;28;20068;-78
2021/12/11 07:58:10;;;;;;;602.15;268.83;;;;;;;-5.48;100.00;99153.44;5015448;28;20095;-79
2021/12/11 08:00:55;;;;;;;346.15;146.27;;;;;;;-5.33;100.00;99159.78;5014360;28;20050;-79
2021/12/11 08:03:40;;;;;;;229.63;99.20;;;;;;;-5.27;100.00;99167.63;5014889;28;20408;-78
2021/12/11 08:06:24;;;;;;;239.25;93.82;;;;;;;-5.21;100.00;99178.00;5000837;28;20363;-78
2021/12/11 08:09:13;;;;;;;437.65;175.48;;;;;;;-5.11;100.00;99185.09;5014365;28;20121;-78
2021/12/11 08:11:58;;;;;;;536.05;227.95;;;;;;;-4.98;100.00;99173.53;5000089;28;20061;-78
2021/12/11 08:14:44;;;;;;;325.92;142.88;;;;;;;-4.92;100.00;99186.47;5014190;28;20064;-78
2021/12/11 08:17:31;;;;;;;288.23;116.93;;;;;;;-4.73;100.00;99188.69;5014024;28;20042;-79
2021/12/11 08:20:16;;;;;;;394.23;140.80;;;;;;;-4.63;100.00;99199.13;5014519;28;20038;-79
2021/12/11 08:23:03;;;;;;;324.65;122.75;;;;;;;-4.48;100.00;99190.19;5013776;28;20095;-79
2021/12/11 08:25:47;;;;;;;273.88;110.13;;;;;;;-4.26;100.00;99194.13;5013833;28;20042;-79
2021/12/11 08:28:32;;;;;;;335.17;130.45;;;;;;;-4.11;100.00;99203.00;5014522;28;20169;-79
2021/12/11 08:31:19;;;;;;;373.38;159.10;;;;;;;-3.96;100.00;99207.59;5013915;28;20076;-79
2021/12/11 08:34:03;;;;;;;307.98;133.43;;;;;;;-4.02;100.00;99205.78;5013697;28;20050;-79
2021/12/11 08:36:49;;;;;;;214.25;102.90;;;;;;;-3.85;100.00;99217.25;5018107;28;20049;-79
2021/12/11 08:39:34;;;;;;;186.82;91.13;;;;;;;-3.92;100.00;99217.09;5016700;28;20053;-79
2021/12/11 08:42:23;;;;;;;182.82;83.95;;;;;;;-3.81;100.00;99242.09;5015731;28;20045;-79
2021/12/11 08:45:20;;;;;;;171.40;79.55;;;;;;;-3.92;100.00;99224.75;5015514;28;20041;-79
2021/12/11 08:48:05;;;;;;;167.35;81.97;;;;;;;-3.74;100.00;99248.22;5014900;28;20079;-79
2021/12/11 08:50:53;;;;;;;298.10;105.65;;;;;;;-3.90;100.00;99246.13;5014389;28;20045;-79
2021/12/11 08:53:37;;;;;;;204.82;84.50;;;;;;;-3.86;100.00;99251.38;5013757;28;20126;-79
2021/12/11 08:56:23;;;;;;;168.02;73.13;;;;;;;-3.79;100.00;99260.91;5014025;28;20045;-79
2021/12/11 08:59:12;;;;;;;153.00;69.45;;;;;;;-3.78;100.00;99265.19;5014024;28;20111;-79
2021/12/11 09:02:07;;;;;;;148.57;66.78;;;;;;;-3.68;100.00;99265.41;5014256;28;20050;-79
2021/12/11 09:05:09;;;;;;;156.88;68.43;;;;;;;-3.62;100.00;99275.78;4999424;28;20057;-79
2021/12/11 09:08:03;;;;;;;149.48;68.60;;;;;;;-3.45;100.00;99283.84;5014538;28;20402;-82
2021/12/11 09:11:13;;;;;;;171.57;77.22;;;;;;;-3.55;100.00;99273.41;4999057;28;20054;-80
2021/12/11 09:14:16;;;;;;;291.98;112.38;;;;;;;-3.42;100.00;99283.94;5013058;28;20060;-80
2021/12/11 09:17:10;;;;;;;218.18;99.85;;;;;;;-3.48;100.00;99294.03;5012316;28;20045;-80
2021/12/11 09:20:03;;;;;;;217.40;95.55;;;;;;;-3.32;100.00;99290.97;4999095;28;20054;-80
2021/12/11 09:22:53;;;;;;;222.27;96.63;;;;;;;-3.19;100.00;99287.00;4999392;28;20333;-80
2021/12/11 09:25:46;;;;;;;264.42;119.88;;;;;;;-3.14;100.00;99281.16;5013936;28;20054;-80
2021/12/11 09:28:36;;;;;;;270.08;122.00;;;;;;;-3.13;100.00;99284.56;5012848;28;20038;-80
2021/12/11 09:31:34;;;;;;;295.35;131.88;;;;;;;-2.98;100.00;99295.16;5013448;28;20045;-80
2021/12/11 09:34:22;;;;;;;256.92;118.45;;;;;;;-3.12;100.00;99307.69;5013492;28;20129;-80
2021/12/11 09:37:08;;;;;;;233.70;106.43;;;;;;;-2.98;100.00;99307.97;5013200;28;20038;-80
2021/12/11 09:40:02;;;;;;;225.00;103.13;;;;;;;-2.89;100.00;99299.59;5013853;28;20129;-81
2021/12/11 09:42:49;;;;;;;208.35;93.55;;;;;;;-2.83;100.00;99308.28;5012749;28;20046;-81
2021/12/11 09:59:37;;;;;;;228.38;104.22;;;;;;;-2.84;100.00;99328.75;5013360;28;20129;-81
2021/12/11 10:02:31;;;;;;;396.15;191.68;;;;;;;-2.65;100.00;99340.25;4985542;28;20042;-81
2021/12/11 10:09:22;;;;;;;230.00;109.88;;;;;;;-2.84;100.00;99354.38;5011826;28;20058;-81
2021/12/11 10:12:17;;;;;;;276.13;129.20;;;;;;;-2.51;100.00;99361.03;4997946;28;20054;-81
2021/12/11 10:15:22;;;;;;;297.83;140.98;;;;;;;-2.39;100.00;99364.72;5011369;28;20066;-81
2021/12/11 10:18:13;;;;;;;305.83;141.73;;;;;;;-2.44;100.00;99360.31;5011802;28;20392;-81
2021/12/11 10:21:09;;;;;;;295.40;137.30;;;;;;;-2.39;100.00;99358.72;4998133;28;20049;-81
2021/12/11 10:23:56;;;;;;;532.47;238.40;;;;;;;-2.28;100.00;99374.31;5000357;28;20371;-81
2021/12/11 10:26:41;;;;;;;424.20;212.25;;;;;;;-2.23;100.00;99375.28;5013657;28;20133;-81
2021/12/11 10:29:25;;;;;;;398.90;199.80;;;;;;;-2.30;100.00;99378.56;5000009;28;20054;-81
2021/12/11 10:32:15;;;;;;;441.50;179.15;;;;;;;-2.16;100.00;99379.69;4983358;28;20080;-81
2021/12/11 10:35:07;;;;;;;368.20;163.10;;;;;;;-2.02;100.00;99388.50;5013308;28;20061;-81
2021/12/11 10:37:52;;;;;;;359.33;167.90;;;;;;;-2.00;100.00;99385.97;4984530;28;20050;-81
2021/12/11 10:40:46;;;;;;;366.15;178.68;;;;;;;-1.98;100.00;99379.16;5013632;28;20038;-81
2021/12/11 10:43:37;;;;;;;329.85;165.30;;;;;;;-1.99;100.00;99382.56;5013421;28;20443;-81
2021/12/11 10:46:28;;;;;;;293.88;143.68;;;;;;;-1.99;100.00;99388.56;5013133;28;20046;-80
2021/12/11 10:49:14;;;;;;;330.13;149.18;;;;;;;-2.01;100.00;99380.00;5014157;28;20042;-81
2021/12/11 10:52:07;;;;;;;308.63;148.45;;;;;;;-1.96;100.00;99383.50;5002036;28;20054;-81
2021/12/11 10:54:53;;;;;;;;;;;;;;;-1.84;100.00;99390.56;5002024;28;20046;-81
2021/12/11 10:57:41;;;;;;;279.52;137.63;;;;;;;-1.84;100.00;99390.56;5001558;28;19921;-81
2021/12/11 11:00:35;;;;;;;265.83;131.23;;;;;;;-1.91;100.00;99387.00;5001661;28;20398;-81
2021/12/11 11:03:20;;;;;;;295.35;144.00;;;;;;;-1.77;100.00;99384.69;5016040;28;20490;-81
2021/12/11 11:10:47;;;;;;;283.40;136.40;;;;;;;-1.59;100.00;99403.81;5013196;28;20054;-81
2021/12/11 11:13:31;;;;;;;323.10;146.75;;;;;;;-1.55;100.00;99403.91;5015498;28;20052;-81
2021/12/11 11:16:19;;;;;;;294.88;144.73;;;;;;;-1.56;100.00;99399.63;5015945;28;20042;-81
2021/12/11 11:19:04;;;;;;;273.35;134.70;;;;;;;-1.69;100.00;99379.69;5015890;28;20065;-81
2021/12/11 11:21:56;;;;;;;263.40;128.70;;;;;;;-1.48;100.00;99407.44;5015997;28;20113;-77
2021/12/11 11:24:46;;;;;;;321.60;144.47;;;;;;;-1.56;100.00;99419.28;5016400;28;20043;-77
2021/12/11 11:27:31;;;;;;;315.42;143.60;;;;;;;-1.35;100.00;99414.50;5018106;28;20050;-77
2021/12/11 11:52:33;;;;;;;342.58;147.18;;;;;;;-1.35;100.00;99457.34;5028591;28;20052;-78
2021/12/11 11:55:24;;;;;;;366.33;163.38;;;;;;;-1.44;100.00;99450.31;5020018;28;20049;-78
2021/12/11 11:58:09;;;;;;;347.10;168.05;;;;;;;-1.44;100.00;99458.03;5035019;28;20045;-77
2021/12/11 12:01:02;;;;;;;307.50;154.95;;;;;;;-1.32;100.00;99462.53;5033239;28;20041;-78
2021/12/11 12:03:46;;;;;;;278.13;131.38;;;;;;;-1.25;100.00;99464.38;5034585;28;20050;-77
2021/12/11 12:06:34;;;;;;;245.80;122.53;;;;;;;-1.46;100.00;99459.72;5034144;28;20366;-78
2021/12/11 12:09:18;;;;;;;228.90;118.82;;;;;;;-1.42;100.00;99467.50;5034281;28;20057;-77
2021/12/11 12:12:05;;;;;;;396.67;170.02;;;;;;;-1.40;100.00;99480.38;5034061;28;20041;-78
2021/12/11 12:14:52;;;;;;;406.30;209.00;;;;;;;-1.35;100.00;99486.47;5033798;28;20064;-78
2021/12/11 12:17:37;;;;;;;291.00;150.20;;;;;;;-1.35;100.00;99481.31;5034671;28;20053;-78
2021/12/11 12:20:23;;;;;;;266.98;135.73;;;;;;;-1.39;100.00;99476.97;5034375;28;20373;-78
2021/12/11 12:23:09;;;;;;;262.00;127.78;;;;;;;-1.35;100.00;99480.47;5034210;28;20048;-78
2021/12/11 12:25:54;;;;;;;238.80;119.40;;;;;;;-1.11;100.00;99473.16;5036513;28;20067;-78
2021/12/11 12:28:40;;;;;;;245.48;126.25;;;;;;;-1.14;100.00;99478.25;5022062;28;20037;-77
2021/12/11 12:31:28;;;;;;;236.13;120.13;;;;;;;-1.24;100.00;99495.22;5020139;28;20053;-77
2021/12/11 12:34:15;;;;;;;218.48;108.78;;;;;;;-1.04;100.00;99505.84;5006002;28;20049;-78
2021/12/11 12:37:00;;;;;;;235.07;113.47;;;;;;;-1.19;100.00;99510.72;5033832;28;20041;-77
2021/12/11 12:39:50;;;;;;;218.98;108.80;;;;;;;-1.32;100.00;99501.06;5006456;28;20061;-77
2021/12/11 12:42:51;;;;;;;236.63;116.13;;;;;;;-1.53;100.00;99499.81;5034029;28;20061;-77
2021/12/11 12:45:44;;;;;;;241.60;116.13;;;;;;;-1.38;100.00;99509.53;5019052;28;20052;-77
2021/12/11 12:48:30;;;;;;;215.00;111.32;;;;;;;-1.31;100.00;99501.09;5033170;28;20053;-77
2021/12/11 12:51:15;;;;;;;225.95;110.10;;;;;;;-1.31;100.00;99515.66;5033117;28;20086;-77
2021/12/11 13:33:22;;;;;;;352.23;184.73;;;;;;;-1.05;100.00;99544.38;5133912;27;1223796;-76
2021/12/11 13:36:10;;;;;;;338.05;187.27;;;;;;;-1.07;100.00;99546.94;5140302;27;20292;-77
2021/12/11 13:38:55;;;;;;;337.83;190.05;;;;;;;-1.12;100.00;99550.25;5139602;27;20389;-77
2021/12/11 13:41:45;;;;;;;335.35;191.68;;;;;;;-1.13;100.00;99553.69;5140069;27;20038;-77
2021/12/11 13:44:32;;;;;;;329.83;177.05;;;;;;;-1.16;100.00;99553.63;5154934;27;20039;-77
2021/12/11 13:47:21;;;;;;;406.05;195.10;;;;;;;-1.18;100.00;99553.56;5140034;27;20034;-77
2021/12/11 13:50:15;;;;;;;304.73;156.77;;;;;;;-1.25;100.00;99542.31;5139414;27;20035;-77
2021/12/11 13:53:00;;;;;;;266.58;135.02;;;;;;;-1.05;100.00;99570.09;5154922;27;20039;-77
2021/12/11 13:55:44;;;;;;;239.23;119.80;;;;;;;-1.22;100.00;99565.50;5124775;27;20051;-77
2021/12/11 13:58:29;;;;;;;224.65;109.50;;;;;;;-1.16;100.00;99574.19;5139255;27;20039;-77
2021/12/11 14:01:20;;;;;;;220.48;107.93;;;;;;;-1.33;100.00;99574.75;5154574;27;20042;-77
2021/12/11 14:04:07;;;;;;;209.45;106.22;;;;;;;-1.39;100.00;99576.31;5139624;27;20478;-77
2021/12/11 14:07:08;;;;;;;233.88;112.53;;;;;;;-1.46;100.00;99565.06;5139614;27;20496;-77
2021/12/11 14:09:59;;;;;;;204.65;102.35;;;;;;;-1.32;100.00;99584.16;5139007;27;20431;-77
2021/12/11 14:12:44;;;;;;;191.10;94.95;;;;;;;-1.33;100.00;99590.16;5139188;27;20325;-77
2021/12/11 14:15:29;;;;;;;177.82;85.90;;;;;;;-1.26;100.00;99598.84;5139166;27;20073;-77